createdAt,value
2019-06-10T00:01:21.401Z,3.20
2019-06-10T00:03:51.815Z,3.20
2019-06-10T00:06:21.129Z,2.90
2019-06-10T00:08:51.144Z,3.70
2019-06-10T00:11:23.436Z,4.13
2019-06-10T00:13:56.616Z,3.70
2019-06-10T00:16:27.367Z,4.00
2019-06-10T00:18:55.458Z,4.00
2019-06-10T00:21:30.814Z,4.70
2019-06-10T00:24:04.122Z,4.67
2019-06-10T00:26:37.092Z,4.73
2019-06-10T00:32:21.503Z,5.23
2019-06-10T00:35:03.216Z,5.20
2019-06-10T00:37:33.724Z,5.07
2019-06-10T00:40:07.633Z,3.90
2019-06-10T00:43:02.596Z,3.60
2019-06-10T00:45:37.140Z,4.10
2019-06-10T00:48:17.608Z,4.07
2019-06-10T00:50:35.841Z,4.53
2019-06-10T00:53:13.904Z,3.70
2019-06-10T00:55:43.251Z,4.17
2019-06-10T00:58:15.976Z,3.83
2019-06-10T01:00:44.434Z,3.70
2019-06-10T01:03:15.149Z,3.87
2019-06-10T01:05:43.007Z,3.90
2019-06-10T01:08:15.557Z,3.83
2019-06-10T01:10:44.158Z,4.13
2019-06-10T01:13:15.304Z,4.57
2019-06-10T01:15:42.736Z,4.00
2019-06-10T01:18:30.494Z,4.40
2019-06-10T01:20:41.453Z,4.17
2019-06-10T01:23:11.918Z,3.50
2019-06-10T01:25:42.342Z,3.67
2019-06-10T01:28:12.513Z,3.10
2019-06-10T01:30:41.222Z,3.10
2019-06-10T01:33:12.363Z,3.20
2019-06-10T01:35:41.513Z,3.00
2019-06-10T01:38:10.577Z,2.90
2019-06-10T01:40:41.852Z,3.50
2019-06-10T01:43:11.045Z,3.37
2019-06-10T01:45:38.944Z,3.20
2019-06-10T01:48:07.413Z,3.30
2019-06-10T01:50:35.597Z,3.53
2019-06-10T01:53:03.797Z,3.60
2019-06-10T01:55:31.990Z,3.70
2019-06-10T01:58:00.878Z,3.83
2019-06-10T02:00:47.526Z,3.50
2019-06-10T02:03:18.369Z,4.07
2019-06-10T02:05:45.568Z,3.90
2019-06-10T02:08:14.970Z,3.90
2019-06-10T02:10:43.723Z,3.70
2019-06-10T02:13:32.768Z,3.70
2019-06-10T02:16:01.922Z,3.53
2019-06-10T02:18:31.884Z,4.10
2019-06-10T02:21:01.091Z,4.03
2019-06-10T02:23:31.346Z,4.43
2019-06-10T02:26:01.516Z,5.37
2019-06-10T02:28:31.710Z,4.00
2019-06-10T02:31:02.535Z,5.00
2019-06-10T02:33:32.360Z,4.10
2019-06-10T02:35:59.062Z,5.07
2019-06-10T02:38:33.966Z,4.20
2019-06-10T02:40:57.118Z,4.30
2019-06-10T02:43:32.106Z,5.10
2019-06-10T02:45:56.922Z,5.60
2019-06-10T02:48:30.345Z,7.27
2019-06-10T02:50:56.533Z,7.73
2019-06-10T02:53:30.859Z,7.90
2019-06-10T02:55:54.613Z,5.60
2019-06-10T02:58:28.614Z,4.70
2019-06-10T03:00:54.596Z,5.00
2019-06-10T03:03:35.310Z,4.03
2019-06-10T03:05:53.859Z,3.60
2019-06-10T03:08:27.319Z,4.13
2019-06-10T03:10:54.818Z,4.07
2019-06-10T03:13:23.986Z,3.90
2019-06-10T03:16:02.843Z,4.00
2019-06-10T03:18:32.896Z,3.90
2019-06-10T03:21:02.566Z,4.20
2019-06-10T03:23:31.981Z,4.33
2019-06-10T03:26:03.678Z,4.97
2019-06-10T03:28:32.073Z,6.07
2019-06-10T03:31:04.954Z,4.87
2019-06-10T03:33:40.351Z,4.30
2019-06-10T03:36:02.979Z,4.70
2019-06-10T03:38:32.491Z,4.43
2019-06-10T03:41:00.201Z,4.03
2019-06-10T03:43:28.381Z,5.00
2019-06-10T03:45:56.561Z,4.70
2019-06-10T03:48:26.762Z,4.50
2019-06-10T03:50:54.694Z,4.90
2019-06-10T03:53:24.358Z,5.50
2019-06-10T03:55:52.780Z,6.07
2019-06-10T03:58:22.048Z,5.80
2019-06-10T04:00:52.232Z,5.20
2019-06-10T04:03:24.247Z,6.40
2019-06-10T04:05:52.575Z,5.43
2019-06-10T04:08:23.402Z,5.60
2019-06-10T04:10:52.091Z,5.33
2019-06-10T04:13:22.696Z,5.77
2019-06-10T04:15:50.389Z,5.50
2019-06-10T04:18:19.698Z,5.73
2019-06-10T04:20:48.023Z,5.97
2019-06-10T04:23:16.209Z,5.37
2019-06-10T04:25:44.408Z,5.60
2019-06-10T04:28:12.671Z,5.40
2019-06-10T04:30:43.093Z,5.93
2019-06-10T04:33:12.697Z,10.97
2019-06-10T04:35:42.688Z,5.87
2019-06-10T04:38:12.947Z,5.57
2019-06-10T04:40:42.957Z,5.47
2019-06-10T04:43:12.442Z,4.80
2019-06-10T04:45:42.858Z,5.77
2019-06-10T04:48:12.417Z,6.17
2019-06-10T04:50:45.481Z,6.80
2019-06-10T04:53:12.764Z,6.23
2019-06-10T04:55:40.514Z,6.03
2019-06-10T04:58:08.684Z,6.50
2019-06-10T05:00:36.900Z,5.90
2019-06-10T05:03:05.064Z,6.50
2019-06-10T05:05:33.240Z,5.97
2019-06-10T05:08:02.690Z,4.57
2019-06-10T05:10:33.230Z,5.67
2019-06-10T05:13:02.980Z,4.50
2019-06-10T05:15:34.144Z,4.60
2019-06-10T05:18:03.160Z,5.23
2019-06-10T05:20:46.748Z,5.23
2019-06-10T05:23:02.256Z,4.70
2019-06-10T05:25:32.652Z,4.40
2019-06-10T05:28:02.783Z,4.63
2019-06-10T05:30:31.708Z,4.33
2019-06-10T05:33:02.598Z,4.60
2019-06-10T05:35:31.582Z,4.50
2019-06-10T05:38:02.413Z,4.13
2019-06-10T05:40:32.745Z,3.70
2019-06-10T05:43:01.984Z,4.00
2019-06-10T05:45:30.544Z,3.33
2019-06-10T05:47:58.926Z,3.57
2019-06-10T05:50:27.111Z,3.33
2019-06-10T05:52:55.306Z,3.20
2019-06-10T05:55:24.328Z,3.47
2019-06-10T05:57:53.641Z,3.07
2019-06-10T06:00:24.935Z,3.30
2019-06-10T06:02:54.215Z,3.40
2019-06-10T06:05:22.400Z,3.17
2019-06-10T06:08:02.286Z,3.13
2019-06-10T06:10:22.255Z,3.17
2019-06-10T06:12:52.686Z,3.00
2019-06-10T06:15:22.102Z,3.10
2019-06-10T06:18:03.964Z,3.17
2019-06-10T06:20:20.493Z,3.50
2019-06-10T06:22:48.670Z,3.10
2019-06-10T06:25:16.955Z,6.50
2019-06-10T06:27:45.132Z,3.50
2019-06-10T06:30:18.586Z,3.73
2019-06-10T06:32:44.560Z,3.63
2019-06-10T06:35:12.766Z,3.13
2019-06-10T06:37:42.868Z,3.20
2019-06-10T06:40:13.295Z,3.17
2019-06-10T06:42:43.360Z,3.20
2019-06-10T06:45:12.205Z,3.40
2019-06-10T06:47:40.504Z,3.33
2019-06-10T06:50:09.065Z,2.93
2019-06-10T06:53:12.593Z,2.53
2019-06-10T06:55:07.385Z,2.13
2019-06-10T06:57:36.769Z,2.83
2019-06-10T07:00:33.822Z,3.30
2019-06-10T07:02:37.575Z,3.00
2019-06-10T07:05:06.959Z,2.27
2019-06-10T07:07:37.433Z,2.17
2019-06-10T07:10:07.848Z,2.27
2019-06-10T07:12:38.196Z,2.53
2019-06-10T07:15:12.074Z,2.10
2019-06-10T07:17:41.600Z,2.63
2019-06-10T07:20:09.661Z,2.20
2019-06-10T07:22:40.063Z,2.50
2019-06-10T07:25:07.816Z,2.80
2019-06-10T07:27:38.580Z,2.47
2019-06-10T07:30:13.502Z,2.40
2019-06-10T07:32:39.219Z,2.60
2019-06-10T07:35:08.753Z,2.30
2019-06-10T07:37:38.196Z,2.00
2019-06-10T07:40:06.992Z,2.20
2019-06-10T07:42:36.319Z,2.50
2019-06-10T07:45:08.043Z,2.50
2019-06-10T07:47:36.996Z,3.63
2019-06-10T07:50:06.770Z,2.40
2019-06-10T07:52:35.932Z,2.00
2019-06-10T07:55:06.604Z,2.20
2019-06-10T07:57:35.937Z,2.70
2019-06-10T08:00:05.984Z,2.10
2019-06-10T08:02:35.529Z,2.30
2019-06-10T08:05:04.505Z,2.47
2019-06-10T08:07:33.512Z,2.30
2019-06-10T08:10:02.980Z,2.50
2019-06-10T08:12:32.540Z,2.60
2019-06-10T08:15:02.702Z,2.10
2019-06-10T08:17:32.694Z,2.20
2019-06-10T08:20:02.486Z,2.27
2019-06-10T08:22:35.130Z,2.23
2019-06-10T08:25:04.618Z,3.20
2019-06-10T08:27:33.425Z,2.90
2019-06-10T08:30:15.437Z,2.63
2019-06-10T08:32:30.463Z,2.43
2019-06-10T08:34:58.648Z,2.33
2019-06-10T08:37:26.836Z,2.93
2019-06-10T08:39:55.014Z,2.60
2019-06-10T08:42:23.441Z,2.60
2019-06-10T08:44:53.354Z,2.40
2019-06-10T08:47:22.944Z,2.90
2019-06-10T08:49:53.164Z,2.60
2019-06-10T08:52:23.516Z,2.83
2019-06-10T08:54:54.159Z,2.50
2019-06-10T08:57:23.227Z,2.33
2019-06-10T08:59:53.173Z,2.40
2019-06-10T09:02:22.974Z,2.00
2019-06-10T09:04:52.997Z,2.30
2019-06-10T09:07:23.216Z,2.40
2019-06-10T09:09:51.129Z,2.47
2019-06-10T09:12:30.393Z,2.47
2019-06-10T09:14:52.971Z,2.27
2019-06-10T09:17:22.681Z,2.33
2019-06-10T09:19:51.860Z,2.57
2019-06-10T09:22:20.129Z,2.63
2019-06-10T09:24:50.993Z,2.70
2019-06-10T09:27:18.529Z,2.97
2019-06-10T09:29:52.102Z,2.67
2019-06-10T09:32:18.249Z,2.93
2019-06-10T09:34:52.204Z,2.40
2019-06-10T09:37:18.247Z,2.30
2019-06-10T09:39:52.474Z,2.70
2019-06-10T09:42:16.303Z,3.27
2019-06-10T09:44:48.411Z,3.10
2019-06-10T09:47:14.750Z,2.60
2019-06-10T09:49:46.087Z,2.58
2019-06-10T09:52:13.670Z,2.55
2019-06-10T09:54:46.945Z,2.52
2019-06-10T09:57:12.684Z,2.90
2019-06-10T09:59:44.474Z,2.83
2019-06-10T10:02:12.581Z,2.50
2019-06-10T10:04:42.323Z,2.63
2019-06-10T10:07:12.150Z,3.13
2019-06-10T10:09:44.336Z,2.80
2019-06-10T10:12:12.241Z,2.40
2019-06-10T10:14:44.441Z,2.62
2019-06-10T10:17:12.711Z,3.77
2019-06-10T10:19:43.297Z,2.70
2019-06-10T10:22:11.661Z,2.50
2019-06-10T10:24:42.465Z,2.67
2019-06-10T10:27:11.031Z,2.55
2019-06-10T10:29:42.607Z,2.20
2019-06-10T10:32:09.829Z,2.35
2019-06-10T10:34:38.004Z,2.80
2019-06-10T10:37:06.196Z,2.37
2019-06-10T10:39:34.377Z,2.67
2019-06-10T10:42:03.994Z,2.87
2019-06-10T10:44:32.193Z,3.00
2019-06-10T10:47:00.377Z,3.33
2019-06-10T10:49:28.561Z,3.00
2019-06-10T10:51:56.812Z,2.62
2019-06-10T10:54:32.828Z,2.42
2019-06-10T10:56:58.909Z,2.60
2019-06-10T10:59:24.754Z,2.70
2019-06-10T11:01:53.704Z,2.98
2019-06-10T11:04:23.187Z,3.12
2019-06-10T11:06:54.424Z,3.10
2019-06-10T11:09:23.013Z,3.10
2019-06-10T11:11:53.169Z,2.70
2019-06-10T11:14:23.029Z,3.02
2019-06-10T11:16:56.561Z,2.90
2019-06-10T11:19:29.057Z,2.85
2019-06-10T11:21:57.915Z,2.95
2019-06-10T11:24:36.658Z,2.50
2019-06-10T11:26:56.681Z,2.77
2019-06-10T11:29:24.909Z,2.60
2019-06-10T11:31:55.682Z,2.65
2019-06-10T11:34:23.029Z,3.08
2019-06-10T11:36:55.026Z,2.52
2019-06-10T11:39:23.279Z,2.40
2019-06-10T11:41:53.288Z,3.20
2019-06-10T11:44:22.488Z,2.60
2019-06-10T11:46:54.029Z,2.97
2019-06-10T11:49:23.713Z,3.07
2019-06-10T11:51:53.578Z,2.90
2019-06-10T11:54:23.225Z,2.40
2019-06-10T11:56:53.359Z,2.60
2019-06-10T11:59:20.499Z,2.80
2019-06-10T12:01:50.285Z,2.50
2019-06-10T12:04:18.622Z,2.37
2019-06-10T12:06:46.793Z,2.90
2019-06-10T12:09:14.994Z,2.80
2019-06-10T12:11:43.969Z,2.50
2019-06-10T12:14:13.007Z,2.90
2019-06-10T12:19:12.736Z,2.43
2019-06-10T12:21:43.388Z,2.80
2019-06-10T12:24:12.686Z,2.70
2019-06-10T12:26:43.445Z,2.93
2019-06-10T12:29:12.431Z,2.97
2019-06-10T12:31:42.867Z,2.63
2019-06-10T12:34:12.519Z,2.60
2019-06-10T12:36:40.517Z,2.30
2019-06-10T12:39:10.778Z,2.70
2019-06-10T12:41:39.188Z,2.83
2019-06-10T12:44:07.442Z,2.50
2019-06-10T12:46:35.621Z,2.67
2019-06-10T12:49:08.334Z,2.52
2019-06-10T12:51:33.780Z,3.12
2019-06-10T12:54:04.768Z,2.77
2019-06-10T12:56:32.785Z,2.63
2019-06-10T12:59:06.811Z,3.50
2019-06-10T13:01:33.022Z,2.70
2019-06-10T13:04:04.897Z,4.23
2019-06-10T13:06:32.522Z,3.77
2019-06-10T13:09:05.405Z,2.90
2019-06-10T13:11:32.874Z,3.00
2019-06-10T13:14:04.009Z,2.60
2019-06-10T13:16:32.016Z,2.30
2019-06-10T13:19:03.280Z,2.53
2019-06-10T13:21:32.823Z,2.93
2019-06-10T13:24:03.740Z,2.93
2019-06-10T13:26:32.987Z,3.00
2019-06-10T13:29:01.765Z,2.53
2019-06-10T13:31:32.867Z,3.00
2019-06-10T13:34:05.065Z,3.07
2019-06-10T13:36:30.153Z,3.03
2019-06-10T13:38:59.186Z,3.20
2019-06-10T13:41:27.397Z,3.10
2019-06-10T13:43:55.714Z,3.20
2019-06-10T13:46:24.747Z,3.23
2019-06-10T13:48:53.671Z,3.33
2019-06-10T13:51:21.890Z,2.80
2019-06-10T13:53:50.120Z,3.10
2019-06-10T13:56:39.857Z,3.13
2019-06-10T13:58:48.198Z,3.33
2019-06-10T14:01:21.515Z,3.07
2019-06-10T14:03:46.264Z,3.50
2019-06-10T14:06:33.158Z,3.80
2019-06-10T14:08:44.447Z,3.33
2019-06-10T14:11:13.286Z,5.17
2019-06-10T14:13:43.256Z,4.23
2019-06-10T14:16:14.011Z,3.73
2019-06-10T14:18:42.468Z,3.80
2019-06-10T14:21:14.086Z,4.23
2019-06-10T14:23:42.383Z,4.60
2019-06-10T14:26:12.639Z,4.13
2019-06-10T14:28:41.768Z,4.33
2019-06-10T14:31:33.706Z,4.30
2019-06-10T14:33:42.768Z,4.50
2019-06-10T14:36:14.704Z,3.87
2019-06-10T14:38:42.094Z,3.53
2019-06-10T14:41:10.386Z,3.63
2019-06-10T14:43:38.590Z,15.80
2019-06-10T14:46:07.390Z,4.63
2019-06-10T14:48:35.913Z,4.07
2019-06-10T14:51:05.354Z,4.20
2019-06-10T14:53:34.168Z,3.87
2019-06-10T14:56:03.854Z,4.03
2019-06-10T14:58:32.396Z,27.47
2019-06-10T15:01:04.287Z,11.87
2019-06-10T15:03:32.720Z,4.10
2019-06-10T15:06:03.170Z,8.63
2019-06-10T15:08:32.257Z,12.13
2019-06-10T15:11:00.746Z,6.10
2019-06-10T15:13:29.179Z,8.93
2019-06-10T15:15:57.499Z,6.53
2019-06-10T15:18:25.808Z,6.17
2019-06-10T15:20:54.210Z,20.20
2019-06-10T15:23:23.534Z,4.00
2019-06-10T15:25:56.896Z,3.60
2019-06-10T15:28:23.902Z,3.90
2019-06-10T15:30:52.712Z,17.07
2019-06-10T15:33:23.557Z,5.63
2019-06-10T15:35:53.396Z,8.60
2019-06-10T15:38:23.190Z,3.77
2019-06-10T15:40:53.135Z,4.63
2019-06-10T15:43:23.419Z,4.20
2019-06-10T15:45:52.777Z,3.70
2019-06-10T15:48:25.106Z,3.67
2019-06-10T15:50:52.693Z,4.80
2019-06-10T15:53:25.384Z,21.60
2019-06-10T15:56:16.712Z,4.30
2019-06-10T15:58:26.012Z,16.97
2019-06-10T16:00:54.624Z,13.13
2019-06-10T16:03:25.354Z,7.03
2019-06-10T16:05:53.196Z,11.80
2019-06-10T16:08:22.524Z,5.13
2019-06-10T16:10:55.246Z,7.30
2019-06-10T16:13:25.828Z,5.10
2019-06-10T16:15:53.622Z,4.20
2019-06-10T16:18:25.975Z,4.30
2019-06-10T16:20:53.007Z,5.33
2019-06-10T16:23:24.584Z,3.93
2019-06-10T16:25:53.405Z,3.83
2019-06-10T16:28:24.556Z,3.30
2019-06-10T16:30:53.738Z,4.07
2019-06-10T16:33:24.050Z,3.83
2019-06-10T16:35:51.140Z,4.57
2019-06-10T16:38:19.333Z,7.13
2019-06-10T16:40:47.512Z,4.60
2019-06-10T16:43:15.794Z,4.63
2019-06-10T16:45:43.981Z,4.10
2019-06-10T16:48:13.031Z,4.23
2019-06-10T16:50:42.678Z,4.67
2019-06-10T16:53:13.445Z,4.20
2019-06-10T16:55:40.985Z,4.27
2019-06-10T16:58:09.169Z,3.70
2019-06-10T17:00:37.356Z,4.43
2019-06-10T17:03:05.611Z,4.20
2019-06-10T17:05:34.084Z,4.80
2019-06-10T17:08:05.172Z,3.87
2019-06-10T17:10:34.379Z,4.23
2019-06-10T17:13:04.467Z,4.10
2019-06-10T17:15:32.679Z,4.07
2019-06-10T17:18:02.818Z,4.10
2019-06-10T17:20:33.810Z,4.70
2019-06-10T17:23:03.187Z,5.17
2019-06-10T17:25:33.783Z,4.37
2019-06-10T17:28:15.162Z,5.40
2019-06-10T17:30:34.637Z,5.03
2019-06-10T17:33:02.345Z,5.37
2019-06-10T17:35:36.447Z,5.50
2019-06-10T17:38:02.773Z,4.93
2019-06-10T17:40:31.661Z,5.30
2019-06-10T17:43:02.414Z,5.33
2019-06-10T17:45:30.941Z,5.57
2019-06-10T17:48:00.199Z,7.43
2019-06-10T17:50:28.384Z,5.73
2019-06-10T17:52:56.565Z,5.63
2019-06-10T17:55:26.561Z,5.30
2019-06-10T17:57:54.637Z,4.37
2019-06-10T18:00:24.675Z,5.00
2019-06-10T18:02:53.547Z,4.20
2019-06-10T18:05:23.752Z,5.07
2019-06-10T18:07:52.729Z,5.00
2019-06-10T18:10:22.414Z,5.10
2019-06-10T18:12:52.737Z,5.53
2019-06-10T18:15:22.226Z,5.00
2019-06-10T18:17:52.464Z,5.50
2019-06-10T18:20:22.654Z,4.60
2019-06-10T18:22:52.832Z,4.37
2019-06-10T18:25:22.879Z,4.93
2019-06-10T18:27:52.320Z,5.83
2019-06-10T18:30:22.209Z,6.57
2019-06-10T18:32:52.558Z,7.47
2019-06-10T18:35:22.392Z,7.50
2019-06-10T18:37:52.883Z,7.83
2019-06-10T18:40:20.952Z,7.97
2019-06-10T18:42:49.136Z,7.20
2019-06-10T18:45:17.481Z,5.87
2019-06-10T18:47:45.689Z,5.80
2019-06-10T18:50:14.234Z,6.53
2019-06-10T18:52:43.337Z,6.30
2019-06-10T18:55:12.272Z,6.13
2019-06-10T18:57:42.613Z,6.43
2019-06-10T19:00:14.500Z,6.73
2019-06-10T19:02:41.629Z,6.83
2019-06-10T19:05:10.204Z,7.60
2019-06-10T19:07:40.014Z,7.17
2019-06-10T19:10:09.105Z,6.53
2019-06-10T19:12:38.358Z,6.47
2019-06-10T19:15:07.429Z,5.50
2019-06-10T19:17:39.560Z,5.40
2019-06-10T19:20:05.960Z,5.60
2019-06-10T19:22:35.640Z,4.87
2019-06-10T19:25:05.582Z,4.63
2019-06-10T19:27:36.252Z,4.80
2019-06-10T19:30:05.201Z,4.27
2019-06-10T19:32:34.999Z,4.03
2019-06-10T19:35:07.036Z,4.73
2019-06-10T19:37:35.749Z,4.13
2019-06-10T19:40:05.616Z,4.53
2019-06-10T19:42:35.643Z,4.40
2019-06-10T19:45:07.368Z,4.87
2019-06-10T19:47:36.286Z,3.83
2019-06-10T19:50:08.560Z,4.43
2019-06-10T19:52:36.913Z,3.93
2019-06-10T19:55:07.215Z,4.03
2019-06-10T19:57:37.392Z,4.87
2019-06-10T20:00:11.932Z,4.87
2019-06-10T20:02:37.632Z,4.40
2019-06-10T20:05:06.906Z,4.97
2019-06-10T20:07:35.850Z,4.50
2019-06-10T20:10:05.788Z,4.40
2019-06-10T20:12:34.359Z,4.50
2019-06-10T20:15:02.798Z,4.30
2019-06-10T20:17:32.799Z,4.50
2019-06-10T20:20:02.542Z,3.93
2019-06-10T20:22:32.040Z,4.57
2019-06-10T20:25:03.648Z,5.37
2019-06-10T20:27:33.059Z,5.07
2019-06-10T20:30:10.226Z,4.70
2019-06-10T20:32:33.674Z,5.57
2019-06-10T20:35:02.935Z,4.90
2019-06-10T20:37:32.599Z,5.10
2019-06-10T20:40:03.554Z,5.90
2019-06-10T20:42:32.320Z,6.27
2019-06-10T20:45:04.602Z,6.63
2019-06-10T20:47:33.342Z,7.93
2019-06-10T20:50:03.282Z,8.00
2019-06-10T20:52:32.979Z,7.57
2019-06-10T20:55:02.927Z,8.43
2019-06-10T20:57:33.068Z,8.80
2019-06-10T21:00:02.339Z,9.10
2019-06-10T21:02:32.537Z,11.00
2019-06-10T21:05:02.824Z,10.53
2019-06-10T21:07:32.414Z,10.80
2019-06-10T21:10:03.019Z,11.23
2019-06-10T21:12:32.718Z,11.83
2019-06-10T21:15:02.452Z,12.47
2019-06-10T21:17:33.303Z,13.80
2019-06-10T21:20:03.395Z,13.73
2019-06-10T21:22:32.775Z,13.63
2019-06-10T21:25:04.167Z,14.97
2019-06-10T21:27:33.314Z,14.90
2019-06-10T21:30:04.388Z,14.33
2019-06-10T21:32:32.653Z,13.67
2019-06-10T21:35:03.100Z,13.70
2019-06-10T21:37:31.998Z,14.43
2019-06-10T21:40:03.058Z,13.73
2019-06-10T21:42:32.612Z,12.33
2019-06-10T21:45:00.243Z,12.23
2019-06-10T21:47:28.449Z,9.97
2019-06-10T21:49:56.658Z,10.17
2019-06-10T21:52:24.854Z,10.70
2019-06-10T21:54:53.054Z,8.90
2019-06-10T21:57:22.124Z,8.50
2019-06-10T21:59:51.520Z,8.87
2019-06-10T22:02:20.325Z,12.33
2019-06-10T22:04:49.432Z,10.57
2019-06-10T22:07:17.806Z,11.57
2019-06-10T22:09:46.003Z,10.63
2019-06-10T22:12:14.327Z,10.17
2019-06-10T22:14:42.520Z,11.73
2019-06-10T22:17:12.276Z,11.07
2019-06-10T22:19:42.624Z,11.10
2019-06-10T22:22:12.843Z,11.70
2019-06-10T22:24:42.413Z,9.90
2019-06-10T22:27:10.350Z,9.60
2019-06-10T22:29:38.715Z,10.10
2019-06-10T22:32:06.913Z,10.53
2019-06-10T22:34:35.170Z,10.20
2019-06-10T22:37:03.454Z,10.63
2019-06-10T22:39:32.580Z,9.80
2019-06-10T22:42:03.003Z,9.30
2019-06-10T22:44:33.116Z,8.73
2019-06-10T22:47:02.859Z,7.40
2019-06-10T22:49:32.800Z,6.87
2019-06-10T22:52:01.119Z,6.40
2019-06-10T22:54:29.323Z,5.27
2019-06-10T22:56:58.405Z,5.20
2019-06-10T22:59:26.947Z,5.90
2019-06-10T23:01:56.571Z,7.33
2019-06-10T23:04:25.033Z,6.50
2019-06-10T23:06:56.088Z,6.17
2019-06-10T23:09:23.103Z,6.50
2019-06-10T23:11:53.516Z,5.77
2019-06-10T23:14:22.774Z,5.93
2019-06-10T23:16:53.570Z,5.97
2019-06-10T23:19:23.283Z,6.80
2019-06-10T23:21:51.812Z,5.77
2019-06-10T23:24:22.690Z,5.77
2019-06-10T23:26:51.568Z,6.27
2019-06-10T23:29:22.388Z,4.73
2019-06-10T23:31:56.368Z,3.80
2019-06-10T23:34:22.993Z,4.50
2019-06-10T23:36:51.094Z,4.40
2019-06-10T23:39:19.655Z,4.73
2019-06-10T23:41:47.846Z,4.13
2019-06-10T23:44:16.036Z,4.60
2019-06-10T23:46:44.237Z,4.70
2019-06-10T23:49:12.435Z,4.57
2019-06-10T23:51:42.304Z,4.47
2019-06-10T23:54:12.704Z,4.60
2019-06-10T23:56:42.836Z,4.50
2019-06-10T23:59:12.076Z,4.40
